createdAt,value
2022-08-15T00:02:34.771Z,21.10
2022-08-15T00:07:49.475Z,21.00
2022-08-15T00:13:18.557Z,21.05
2022-08-15T00:18:41.793Z,21.15
2022-08-15T00:24:20.707Z,20.81
2022-08-15T00:29:49.785Z,20.87
2022-08-15T00:35:12.186Z,20.87
2022-08-15T00:40:34.613Z,20.76
2022-08-15T00:45:56.869Z,20.69
2022-08-15T00:51:29.722Z,20.52
2022-08-15T00:57:00.137Z,20.49
2022-08-15T01:02:46.411Z,20.48
2022-08-15T01:08:08.339Z,20.58
2022-08-15T01:14:02.459Z,20.50
2022-08-15T01:19:29.646Z,20.39
2022-08-15T01:25:26.319Z,20.38
2022-08-15T01:31:02.697Z,20.39
2022-08-15T01:36:32.102Z,20.28
2022-08-15T01:42:01.579Z,20.30
2022-08-15T01:47:46.637Z,20.25
2022-08-15T01:53:26.653Z,20.14
2022-08-15T01:58:56.794Z,19.96
2022-08-15T02:04:25.742Z,19.96
2022-08-15T02:09:51.689Z,19.88
2022-08-15T02:15:17.347Z,19.81
2022-08-15T02:20:39.946Z,19.79
2022-08-15T02:26:10.106Z,19.77
2022-08-15T02:31:34.469Z,19.76
2022-08-15T02:36:56.664Z,19.82
2022-08-15T02:42:18.967Z,19.87
2022-08-15T02:47:44.259Z,19.65
2022-08-15T02:53:13.855Z,19.78
2022-08-15T02:58:41.645Z,19.76
2022-08-15T03:04:28.546Z,19.79
2022-08-15T03:09:56.642Z,19.88
2022-08-15T03:15:18.875Z,19.83
2022-08-15T03:20:44.799Z,19.87
2022-08-15T03:26:25.521Z,19.88
2022-08-15T03:31:51.324Z,19.95
2022-08-15T03:37:13.138Z,20.02
2022-08-15T03:42:38.944Z,20.27
2022-08-15T03:48:02.117Z,20.69
2022-08-15T03:53:24.412Z,21.10
2022-08-15T03:58:50.684Z,21.52
2022-08-15T04:04:18.371Z,22.33
2022-08-15T04:09:43.570Z,22.02
2022-08-15T04:15:09.756Z,22.93
2022-08-15T04:20:38.515Z,23.06
2022-08-15T04:26:08.067Z,23.89
2022-08-15T04:31:32.858Z,24.59
2022-08-15T04:36:58.088Z,24.94
2022-08-15T04:42:24.302Z,25.47
2022-08-15T04:47:47.778Z,25.57
2022-08-15T04:53:09.830Z,25.05
2022-08-15T04:58:42.827Z,25.27
2022-08-15T05:04:24.102Z,25.63
2022-08-15T05:09:58.890Z,26.49
2022-08-15T05:15:23.248Z,28.91
2022-08-15T05:20:45.161Z,31.99
2022-08-15T05:26:53.140Z,32.94
2022-08-15T05:31:51.158Z,29.20
2022-08-15T05:37:14.679Z,28.11
2022-08-15T05:43:02.100Z,26.22
2022-08-15T05:48:34.036Z,26.50
2022-08-15T05:54:26.139Z,25.95
2022-08-15T06:00:00.588Z,25.34
2022-08-15T06:05:35.756Z,31.67
2022-08-15T06:11:10.428Z,33.56
2022-08-15T06:16:46.173Z,36.35
2022-08-15T06:22:09.540Z,30.45
2022-08-15T06:27:49.900Z,28.90
2022-08-15T06:33:57.099Z,27.37
2022-08-15T06:40:06.692Z,30.50
2022-08-15T06:45:36.158Z,27.73
2022-08-15T06:51:01.836Z,27.46
2022-08-15T06:56:40.369Z,27.04
2022-08-15T07:02:50.546Z,28.15
2022-08-15T07:08:17.320Z,30.60
2022-08-15T07:14:20.766Z,29.77
2022-08-15T07:19:55.672Z,27.57
2022-08-15T07:25:25.734Z,25.68
2022-08-15T07:30:55.578Z,26.48
2022-08-15T07:36:30.303Z,26.52
2022-08-15T07:41:56.210Z,27.30
2022-08-15T07:47:24.995Z,26.98
2022-08-15T07:53:01.205Z,25.64
2022-08-15T07:58:26.581Z,25.44
2022-08-15T08:03:56.891Z,25.18
2022-08-15T08:09:44.405Z,24.74
2022-08-15T08:15:37.354Z,24.97
2022-08-15T08:21:08.354Z,25.40
2022-08-15T08:26:36.865Z,25.47
2022-08-15T08:32:29.988Z,25.06
2022-08-15T08:38:31.007Z,25.16
2022-08-15T08:44:17.808Z,25.03
2022-08-15T08:50:34.409Z,24.93
2022-08-15T08:55:53.730Z,25.51
2022-08-15T09:01:24.508Z,25.66
2022-08-15T09:06:52.623Z,26.30
2022-08-15T09:12:22.894Z,26.85
2022-08-15T09:17:59.895Z,27.00
2022-08-15T09:23:26.002Z,27.28
2022-08-15T09:29:18.657Z,27.58
2022-08-15T09:35:12.203Z,27.94
2022-08-15T09:41:12.103Z,28.40
2022-08-15T09:46:45.569Z,29.30
2022-08-15T09:52:47.508Z,28.51
2022-08-15T09:58:20.203Z,29.47
2022-08-15T10:03:48.138Z,30.17
2022-08-15T10:10:01.306Z,30.02
2022-08-15T10:15:30.285Z,29.16
2022-08-15T10:21:15.518Z,29.38
2022-08-15T10:26:37.297Z,28.50
2022-08-15T10:32:37.895Z,29.96
2022-08-15T10:37:58.965Z,29.87
2022-08-15T10:43:53.668Z,29.43
2022-08-15T10:49:31.975Z,29.11
2022-08-15T10:55:12.487Z,29.45
2022-08-15T11:00:37.355Z,28.93
2022-08-15T11:06:14.532Z,28.87
2022-08-15T11:11:44.097Z,28.89
2022-08-15T11:17:16.612Z,28.66
2022-08-15T11:22:49.295Z,29.14
2022-08-15T11:28:36.999Z,29.68
2022-08-15T11:34:37.727Z,29.45
2022-08-15T11:39:59.318Z,29.97
2022-08-15T11:45:24.015Z,29.28
2022-08-15T11:51:03.352Z,29.18
2022-08-15T11:56:56.091Z,29.37
2022-08-15T12:02:31.773Z,29.48
2022-08-15T12:07:59.114Z,29.05
2022-08-15T12:13:34.371Z,28.86
2022-08-15T12:18:57.841Z,28.35
2022-08-15T12:24:23.760Z,29.13
2022-08-15T12:29:51.073Z,28.58
2022-08-15T12:35:24.160Z,29.11
2022-08-15T12:40:57.498Z,29.43
2022-08-15T12:46:29.277Z,28.98
2022-08-15T12:51:51.298Z,29.24
2022-08-15T12:57:15.729Z,29.33
2022-08-15T13:02:47.798Z,28.95
2022-08-15T13:08:27.255Z,28.75
2022-08-15T13:13:52.917Z,28.67
2022-08-15T13:19:23.446Z,28.36
2022-08-15T13:24:47.840Z,28.70
2022-08-15T13:30:19.568Z,28.62
2022-08-15T13:35:58.814Z,28.53
2022-08-15T13:41:22.218Z,28.63
2022-08-15T13:47:08.733Z,28.88
2022-08-15T13:52:46.844Z,28.76
2022-08-15T13:58:19.836Z,28.78
2022-08-15T14:03:42.541Z,28.59
2022-08-15T14:09:18.612Z,29.15
2022-08-15T14:14:46.777Z,28.89
2022-08-15T14:20:27.298Z,28.99
2022-08-15T14:27:12.201Z,29.34
2022-08-15T14:31:31.297Z,28.89
2022-08-15T14:36:54.801Z,29.46
2022-08-15T14:42:21.683Z,29.30
2022-08-15T14:47:52.831Z,29.27
2022-08-15T14:53:14.869Z,29.45
2022-08-15T14:58:40.960Z,29.48
2022-08-15T15:04:20.839Z,29.67
2022-08-15T15:09:43.017Z,28.76
2022-08-15T15:15:06.393Z,29.02
2022-08-15T15:20:46.105Z,29.25
2022-08-15T15:26:10.636Z,29.76
2022-08-15T15:31:32.717Z,30.13
2022-08-15T15:36:56.287Z,29.40
2022-08-15T15:42:20.670Z,29.54
2022-08-15T15:47:59.990Z,29.66
2022-08-15T15:53:30.929Z,29.01
2022-08-15T15:59:02.080Z,28.77
2022-08-15T16:04:29.672Z,28.51
2022-08-15T16:09:55.001Z,28.63
2022-08-15T16:15:43.818Z,28.15
2022-08-15T16:21:17.220Z,28.01
2022-08-15T16:26:53.302Z,27.80
2022-08-15T16:32:33.420Z,27.90
2022-08-15T16:38:01.118Z,27.77
2022-08-15T16:43:53.386Z,27.56
2022-08-15T16:49:23.236Z,27.56
2022-08-15T16:55:02.079Z,27.22
2022-08-15T17:00:44.263Z,27.04
2022-08-15T17:06:23.422Z,26.84
2022-08-15T17:12:12.178Z,26.51
2022-08-15T17:18:11.567Z,26.51
2022-08-15T17:24:55.826Z,26.39
2022-08-15T17:30:54.065Z,26.26
2022-08-15T17:35:53.779Z,26.01
2022-08-15T17:41:20.769Z,25.87
2022-08-15T17:46:50.626Z,25.82
2022-08-15T17:52:18.945Z,25.83
2022-08-15T17:58:08.830Z,25.65
2022-08-15T18:03:31.806Z,25.71
2022-08-15T18:08:57.745Z,25.65
2022-08-15T18:14:39.133Z,25.02
2022-08-15T18:20:26.868Z,25.36
2022-08-15T18:25:52.129Z,25.24
2022-08-15T18:31:21.538Z,25.13
2022-08-15T18:36:51.641Z,25.03
2022-08-15T18:42:22.495Z,24.97
2022-08-15T18:47:45.100Z,24.77
2022-08-15T18:53:19.349Z,24.67
2022-08-15T18:58:43.317Z,24.60
2022-08-15T19:04:49.267Z,24.68
2022-08-15T19:09:58.709Z,24.75
2022-08-15T19:15:24.758Z,24.65
2022-08-15T19:21:00.349Z,24.71
2022-08-15T19:26:37.583Z,24.64
2022-08-15T19:32:03.132Z,24.47
2022-08-15T19:37:51.881Z,24.29
2022-08-15T19:43:38.232Z,24.44
2022-08-15T19:49:15.204Z,24.34
2022-08-15T19:55:38.367Z,24.33
2022-08-15T20:00:56.731Z,24.37
2022-08-15T20:06:39.344Z,24.23
2022-08-15T20:12:19.272Z,24.34
2022-08-15T20:18:29.603Z,24.26
2022-08-15T20:24:07.726Z,24.03
2022-08-15T20:29:53.403Z,24.02
2022-08-15T20:35:24.493Z,24.01
2022-08-15T20:41:10.842Z,24.04
2022-08-15T20:46:45.242Z,24.21
2022-08-15T20:52:39.562Z,24.02
2022-08-15T20:57:51.986Z,24.08
2022-08-15T21:04:02.153Z,24.12
2022-08-15T21:09:16.726Z,24.18
2022-08-15T21:15:09.673Z,24.19
2022-08-15T21:20:35.583Z,24.23
2022-08-15T21:25:58.328Z,24.10
2022-08-15T21:31:38.336Z,24.08
2022-08-15T21:37:33.917Z,23.88
2022-08-15T21:43:09.866Z,23.77
2022-08-15T21:48:49.053Z,23.85
2022-08-15T21:54:21.653Z,23.71
2022-08-15T22:00:20.215Z,23.67
2022-08-15T22:05:55.177Z,23.63
2022-08-15T22:11:40.478Z,23.51
2022-08-15T22:17:02.330Z,23.59
2022-08-15T22:22:28.646Z,23.51
2022-08-15T22:27:54.039Z,23.56
2022-08-15T22:33:16.200Z,23.52
2022-08-15T22:38:38.943Z,23.58
2022-08-15T22:44:05.826Z,23.60
2022-08-15T22:49:40.419Z,23.44
2022-08-15T22:55:04.261Z,23.34
2022-08-15T23:00:34.447Z,23.35
2022-08-15T23:06:23.781Z,23.38
2022-08-15T23:11:50.039Z,23.28
2022-08-15T23:17:27.689Z,23.13
2022-08-15T23:22:51.468Z,23.05
2022-08-15T23:28:23.180Z,22.98
2022-08-15T23:33:57.901Z,23.01
2022-08-15T23:39:35.022Z,23.03
2022-08-15T23:44:59.147Z,22.96
2022-08-15T23:50:22.755Z,22.95
2022-08-15T23:55:59.411Z,22.90
